Weather at Vienna International Airport

Public forecast

Using degrees Celsius for public forecast. Weather courtesy of forecast.io.

Current aviation weather report (METAR) for Vienna International Airport

Retrieved 2020/10/31 01:20 UTC (0 seconds ago):

LOWW 310120Z 28018KT 9999 FEW018 SCT049 13/10 Q1022 NOSIG

Aviation forecast (TAF) for Vienna International Airport

Retrieved 2020-10-31 00:18 UTC (59 minutes ago):

TAF LOWW 302315Z 3100/0106 29013KT 9999 BKN040 TX14/3100Z TN09/0105Z TEMPO 3100/3111 29018G28KT -RA BECMG 3115/3118 VRB03KT FM312300 15007KT 2500 SCT002 SCT045 TEMPO 0101/0105 1200 BCFG BKN002 TEMPO 0105/0106 1200 BCFG SCT004 BKN007